createdAt,value
2023-04-11T00:01:46.340Z,100518.40
2023-04-11T00:06:52.026Z,100502.60
2023-04-11T00:11:57.730Z,100491.40
2023-04-11T00:17:03.983Z,100489.00
2023-04-11T00:22:09.848Z,100478.00
2023-04-11T00:27:15.414Z,100477.40
2023-04-11T00:32:22.450Z,100476.60
2023-04-11T00:37:28.147Z,100462.00
2023-04-11T00:42:33.999Z,100464.40
2023-04-11T00:47:40.780Z,100451.00
2023-04-11T00:52:48.974Z,100435.60
2023-04-11T00:57:56.731Z,100432.80
2023-04-11T01:03:03.146Z,100428.40
2023-04-11T01:08:09.920Z,100422.80
2023-04-11T01:13:15.818Z,100416.40
2023-04-11T01:18:21.602Z,100403.60
2023-04-11T01:23:28.378Z,100400.20
2023-04-11T01:28:34.258Z,100396.40
2023-04-11T01:33:40.364Z,100387.60
2023-04-11T01:38:45.986Z,100380.80
2023-04-11T01:43:52.247Z,100377.40
2023-04-11T01:49:00.285Z,100371.00
2023-04-11T01:54:06.955Z,100367.00
2023-04-11T01:59:12.692Z,100362.00
2023-04-11T02:04:18.438Z,100352.20
2023-04-11T02:09:24.453Z,100349.60
2023-04-11T02:14:40.390Z,100342.60
2023-04-11T02:19:46.492Z,100344.20
2023-04-11T02:24:52.808Z,100333.40
2023-04-11T02:29:58.411Z,100332.20
2023-04-11T02:35:07.314Z,100326.60
2023-04-11T02:40:14.061Z,100317.40
2023-04-11T02:45:20.091Z,100313.20
2023-04-11T02:50:26.675Z,100306.00
2023-04-11T02:55:32.526Z,100303.80
2023-04-11T03:00:38.523Z,100302.20
2023-04-11T03:05:44.232Z,100302.80
2023-04-11T03:10:50.091Z,100299.40
2023-04-11T03:15:56.000Z,100294.20
2023-04-11T03:21:01.883Z,100288.40
2023-04-11T03:26:08.991Z,100292.60
2023-04-11T03:31:14.955Z,100282.40
2023-04-11T03:36:22.079Z,100278.60
2023-04-11T03:41:28.630Z,100271.60
2023-04-11T03:46:34.368Z,100261.20
2023-04-11T03:51:40.423Z,100255.60
2023-04-11T03:56:46.522Z,100251.60
2023-04-11T04:01:52.281Z,100244.40
2023-04-11T04:06:58.108Z,100230.80
2023-04-11T04:12:04.217Z,100227.80
2023-04-11T04:17:10.116Z,100230.40
2023-04-11T04:22:17.181Z,100220.00
2023-04-11T04:27:24.673Z,100219.80
2023-04-11T04:32:30.623Z,100221.80
2023-04-11T04:37:39.241Z,100216.60
2023-04-11T04:42:44.946Z,100215.80
2023-04-11T04:47:50.921Z,100224.60
2023-04-11T04:52:56.881Z,100220.20
2023-04-11T04:58:02.741Z,100221.20
2023-04-11T05:03:10.463Z,100211.00
2023-04-11T05:08:16.623Z,100220.80
2023-04-11T05:13:22.503Z,100216.00
2023-04-11T05:18:29.694Z,100212.80
2023-04-11T05:23:35.335Z,100211.20
2023-04-11T05:28:41.920Z,100202.60
2023-04-11T05:33:47.660Z,100195.80
2023-04-11T05:38:53.437Z,100189.60
2023-04-11T05:43:59.502Z,100187.40
2023-04-11T05:49:05.441Z,100186.80
2023-04-11T05:54:11.219Z,100180.80
2023-04-11T05:59:19.695Z,100172.80
2023-04-11T06:04:28.612Z,100177.20
2023-04-11T06:09:35.035Z,100174.20
2023-04-11T06:14:40.914Z,100176.80
2023-04-11T06:19:46.831Z,100174.00
2023-04-11T06:24:53.399Z,100169.40
2023-04-11T06:29:59.140Z,100172.00
2023-04-11T06:35:06.356Z,100164.40
2023-04-11T06:40:14.142Z,100168.80
2023-04-11T06:45:20.149Z,100163.60
2023-04-11T06:50:26.165Z,100158.20
2023-04-11T06:55:31.867Z,100157.40
2023-04-11T07:00:37.742Z,100153.40
2023-04-11T07:05:43.587Z,100147.20
2023-04-11T07:10:49.623Z,100145.20
2023-04-11T07:15:55.443Z,100139.20
2023-04-11T07:21:01.320Z,100137.20
2023-04-11T07:26:10.815Z,100140.00
2023-04-11T07:31:19.346Z,100130.80
2023-04-11T07:36:26.285Z,100122.00
2023-04-11T07:41:32.501Z,100107.60
2023-04-11T07:46:38.478Z,100095.20
2023-04-11T07:51:44.379Z,100097.20
2023-04-11T07:56:50.056Z,100079.60
2023-04-11T08:02:04.020Z,100075.20
2023-04-11T08:07:12.600Z,100080.80
2023-04-11T08:12:22.022Z,100073.60
2023-04-11T08:17:37.528Z,100068.40
2023-04-11T08:22:46.618Z,100059.60
2023-04-11T08:27:52.753Z,100052.80
2023-04-11T08:32:58.855Z,100042.40
2023-04-11T08:38:08.932Z,100052.00
2023-04-11T08:43:14.593Z,100045.20
2023-04-11T08:48:24.598Z,100042.80
2023-04-11T08:53:31.173Z,100033.40
2023-04-11T08:58:37.034Z,100029.40
2023-04-11T09:03:52.788Z,100031.80
2023-04-11T09:08:59.384Z,100022.80
2023-04-11T09:14:09.687Z,100016.60
2023-04-11T09:19:26.420Z,100014.00
2023-04-11T09:24:40.435Z,100011.00
2023-04-11T09:29:48.838Z,100002.80
2023-04-11T09:35:09.392Z,99998.80
2023-04-11T09:40:17.164Z,99994.00
2023-04-11T09:45:25.760Z,99987.80
2023-04-11T09:50:33.847Z,99976.00
2023-04-11T09:55:41.028Z,99967.00
2023-04-11T10:00:48.914Z,99959.80
2023-04-11T10:05:57.331Z,99958.80
2023-04-11T10:11:06.886Z,99959.80
2023-04-11T10:16:15.020Z,99941.20
2023-04-11T10:21:42.323Z,99929.60
2023-04-11T10:26:55.936Z,99936.40
2023-04-11T10:32:12.757Z,99927.40
2023-04-11T10:37:19.815Z,99931.80
2023-04-11T10:42:37.730Z,99922.40
2023-04-11T10:47:43.684Z,99914.60
2023-04-11T10:52:50.249Z,99903.60
2023-04-11T10:58:16.045Z,99891.40
2023-04-11T11:03:23.891Z,99888.20
2023-04-11T11:08:31.021Z,99885.60
2023-04-11T11:13:44.331Z,99881.00
2023-04-11T11:18:52.614Z,99878.80
2023-04-11T11:24:02.549Z,99871.20
2023-04-11T11:29:09.667Z,99876.80
2023-04-11T11:34:28.919Z,99857.40
2023-04-11T11:39:35.817Z,99861.80
2023-04-11T11:44:41.421Z,99854.00
2023-04-11T11:49:49.857Z,99840.60
2023-04-11T11:54:56.100Z,99847.60
2023-04-11T12:00:08.944Z,99844.80
2023-04-11T12:05:15.550Z,99837.00
2023-04-11T12:10:21.407Z,99834.40
2023-04-11T12:15:27.445Z,99839.40
2023-04-11T12:20:35.167Z,99839.60
2023-04-11T12:25:41.304Z,99823.20
2023-04-11T12:30:47.876Z,99818.20
2023-04-11T12:35:53.643Z,99814.00
2023-04-11T12:41:19.753Z,99809.00
2023-04-11T12:46:25.103Z,99818.40
2023-04-11T12:51:30.942Z,99814.40
2023-04-11T12:56:36.512Z,99787.80
2023-04-11T13:01:43.138Z,99793.00
2023-04-11T13:06:48.888Z,99789.60
2023-04-11T13:11:54.516Z,99781.40
2023-04-11T13:17:00.169Z,99769.00
2023-04-11T13:22:06.093Z,99771.40
2023-04-11T13:27:11.948Z,99777.80
2023-04-11T13:32:17.802Z,99760.20
2023-04-11T13:37:23.561Z,99757.60
2023-04-11T13:42:29.211Z,99757.40
2023-04-11T13:47:37.856Z,99748.20
2023-04-11T13:52:44.214Z,99744.40
2023-04-11T13:57:50.563Z,99746.60
2023-04-11T14:02:56.961Z,99737.60
2023-04-11T14:08:03.737Z,99737.20
2023-04-11T14:18:17.162Z,99735.60
2023-04-11T14:23:23.772Z,99735.20
2023-04-11T14:28:29.517Z,99734.20
2023-04-11T14:33:35.262Z,99722.20
2023-04-11T14:38:40.794Z,99715.40
2023-04-11T14:43:46.472Z,99711.40
2023-04-11T14:48:52.175Z,99709.60
2023-04-11T14:53:59.589Z,99706.00
2023-04-11T14:59:05.372Z,99697.80
2023-04-11T15:04:11.055Z,99697.60
2023-04-11T15:09:19.788Z,99681.80
2023-04-11T15:14:29.004Z,99672.60
2023-04-11T15:19:34.666Z,99658.20
2023-04-11T15:24:40.528Z,99647.20
2023-04-11T15:29:46.343Z,99652.40
2023-04-11T15:34:52.477Z,99644.80
2023-04-11T15:39:58.026Z,99646.20
2023-04-11T15:45:04.243Z,99647.40
2023-04-11T15:50:12.401Z,99649.40
2023-04-11T15:55:18.973Z,99641.40
2023-04-11T16:00:26.958Z,99643.00
2023-04-11T16:05:33.707Z,99638.00
2023-04-11T16:10:39.330Z,99636.00
2023-04-11T16:15:44.983Z,99629.80
2023-04-11T16:20:50.594Z,99635.00
2023-04-11T16:25:57.004Z,99636.80
2023-04-11T16:31:02.647Z,99635.80
2023-04-11T16:36:10.701Z,99631.40
2023-04-11T16:41:17.674Z,99630.20
2023-04-11T16:46:23.399Z,99632.20
2023-04-11T16:51:29.115Z,99633.60
2023-04-11T16:56:34.691Z,99629.80
2023-04-11T17:01:41.019Z,99611.80
2023-04-11T17:06:47.115Z,99619.80
2023-04-11T17:11:53.087Z,99621.40
2023-04-11T17:16:58.869Z,99626.40
2023-04-11T17:22:05.510Z,99623.20
2023-04-11T17:27:11.207Z,99632.80
2023-04-11T17:32:16.848Z,99627.80
2023-04-11T17:37:22.495Z,99630.80
2023-04-11T17:42:28.209Z,99641.40
2023-04-11T17:47:34.180Z,99634.20
2023-04-11T17:52:42.340Z,99643.80
2023-04-11T17:57:49.381Z,99644.60
2023-04-11T18:02:57.340Z,99649.00
2023-04-11T18:08:04.210Z,99653.00
2023-04-11T18:13:10.285Z,99657.00
2023-04-11T18:18:16.314Z,99655.60
2023-04-11T18:23:23.462Z,99658.40
2023-04-11T18:28:29.769Z,99662.60
2023-04-11T18:33:42.128Z,99662.80
2023-04-11T18:38:49.164Z,99666.40
2023-04-11T18:43:55.054Z,99669.60
2023-04-11T18:49:00.718Z,99663.20
2023-04-11T18:54:06.775Z,99665.80
2023-04-11T18:59:14.909Z,99662.60
2023-04-11T19:04:23.677Z,99665.40
2023-04-11T19:09:30.347Z,99654.20
2023-04-11T19:14:36.208Z,99658.80
2023-04-11T19:19:42.929Z,99654.40
2023-04-11T19:24:49.453Z,99657.20
2023-04-11T19:29:55.553Z,99658.60
2023-04-11T19:35:01.508Z,99676.00
2023-04-11T19:40:11.170Z,99686.60
2023-04-11T19:45:17.204Z,99678.60
2023-04-11T19:50:23.166Z,99677.20
2023-04-11T19:55:30.321Z,99683.40
2023-04-11T20:00:37.373Z,99686.80
2023-04-11T20:05:43.617Z,99691.00
2023-04-11T20:10:49.850Z,99695.00
2023-04-11T20:15:55.514Z,99696.20
2023-04-11T20:21:02.781Z,99702.00
2023-04-11T20:26:08.641Z,99696.40
2023-04-11T20:31:14.803Z,99698.80
2023-04-11T20:36:20.827Z,99689.60
2023-04-11T20:41:26.906Z,99685.20
2023-04-11T20:46:38.387Z,99686.80
2023-04-11T20:51:44.077Z,99684.60
2023-04-11T20:56:49.744Z,99693.00
2023-04-11T21:01:55.370Z,99693.80
2023-04-11T21:07:00.960Z,99701.00
2023-04-11T21:12:07.334Z,99699.80
2023-04-11T21:17:12.906Z,99684.20
2023-04-11T21:22:18.491Z,99680.00
2023-04-11T21:27:24.092Z,99689.80
2023-04-11T21:32:30.383Z,99695.80
2023-04-11T21:37:36.591Z,99689.60
2023-04-11T21:42:42.280Z,99700.00
2023-04-11T21:47:49.522Z,99709.80
2023-04-11T21:52:55.651Z,99720.40
2023-04-11T21:58:01.287Z,99709.00
2023-04-11T22:03:07.773Z,99701.60
2023-04-11T22:08:19.504Z,99698.80
2023-04-11T22:13:25.529Z,99694.40
2023-04-11T22:18:31.127Z,99692.20
2023-04-11T22:23:37.011Z,99696.80
2023-04-11T22:28:42.646Z,99694.60
2023-04-11T22:33:48.772Z,99690.60
2023-04-11T22:38:54.334Z,99683.80
2023-04-11T22:44:00.529Z,99668.40
2023-04-11T22:49:09.217Z,99672.60
2023-04-11T22:54:15.704Z,99673.20
2023-04-11T22:59:21.507Z,99669.80
2023-04-11T23:04:27.133Z,99669.40
2023-04-11T23:09:32.766Z,99671.40
2023-04-11T23:14:38.282Z,99675.60
2023-04-11T23:19:43.905Z,99663.80
2023-04-11T23:24:49.702Z,99662.40
2023-04-11T23:29:55.286Z,99664.40
2023-04-11T23:35:01.180Z,99650.20
2023-04-11T23:40:11.931Z,99635.80
2023-04-11T23:45:22.448Z,99621.20
2023-04-11T23:50:28.200Z,99614.60
2023-04-11T23:55:33.868Z,99628.20
